ENMS/MJF METAR and TAF weather

Enter ICAO airport designator
Station Type Date Time Source
ENMS METAR 2021/04/14 20:50 UTC NOAA

ENMS 142050Z VRB02KT 9999 BKN048 02/M04 Q1028 RMK WIND 412FT 17006KT


Station Type Date Time Source
ENMS Decoded METAR 2021/04/14 20:50 UTC NOAA

Mosjoen Kjaerstad, Norway (ENMS) 65-48N 013-08E
Apr 14, 2021 - 04:50 PM EDT / 2021.04.14 2050 UTC
Wind: Variable at 2 MPH (2 KT):0
Visibility: greater than 7 mile(s):0
Sky conditions: mostly cloudy
Temperature: 35 F (2 C)
Dew Point: 24 F (-4 C)
Relative Humidity: 64%
Pressure (altimeter): 30.36 in. Hg (1028 hPa)
ob: ENMS 142050Z VRB02KT 9999 BKN048 02/M04 Q1028 RMK WIND 412FT 17006KT
cycle: 21

Station Type Date Time Source
ENMS TAF UTC NOAA

Error!

Example: see airport list